Time;durP1;ratioP1;P1;durP2;ratioP2;P2;SDS_P1;SDS_P2;PMS_P1;PMS_P2;Temp;Humidity;BMP_temperature;BMP_pressure;BME280_temperature;BME280_humidity;BME280_pressure;Samples;Min_cycle;Max_cycle;Signal;HPM_P1;HPM_P2
2023/06/07 00:02:01;;;;;;;;;18.33;17.67;;;;;;;;5088753;27;45198;-75
2023/06/07 00:04:26;;;;;;;;;14.67;14.33;;;;;;;;5091136;27;45872;-75
2023/06/07 00:06:56;;;;;;;;;18.00;17.00;;;;;;;;5100599;27;45258;-75
2023/06/07 00:09:21;;;;;;;;;15.75;14.75;;;;;;;;5089154;27;45476;-75
2023/06/07 00:11:46;;;;;;;;;19.33;18.33;;;;;;;;5084055;27;45437;-75
2023/06/07 00:14:12;;;;;;;;;19.67;18.00;;;;;;;;5083984;27;45306;-75
2023/06/07 00:16:37;;;;;;;;;18.00;14.67;;;;;;;;5098438;27;45342;-75
2023/06/07 00:19:03;;;;;;;;;20.00;16.33;;;;;;;;5098760;27;45876;-75
2023/06/07 00:21:30;;;;;;;;;17.75;17.00;;;;;;;;5098764;27;46135;-75
2023/06/07 00:23:55;;;;;;;;;19.00;18.00;;;;;;;;5100373;27;45215;-75
2023/06/07 00:26:20;;;;;;;;;17.00;16.00;;;;;;;;5093298;27;45366;-75
2023/06/07 00:28:45;;;;;;;;;17.33;16.00;;;;;;;;5091104;27;45476;-75
2023/06/07 00:31:10;;;;;;;;;17.67;17.33;;;;;;;;5095266;27;45404;-74
2023/06/07 00:33:36;;;;;;;;;22.33;19.67;;;;;;;;5079081;27;45203;-75
2023/06/07 00:36:01;;;;;;;;;19.00;18.33;;;;;;;;5079890;27;45221;-75
2023/06/07 00:38:26;;;;;;;;;17.25;14.50;;;;;;;;5079481;27;45446;-75
2023/06/07 00:40:51;;;;;;;;;18.33;17.33;;;;;;;;5090079;27;46474;-75
2023/06/07 00:43:17;;;;;;;;;17.67;15.67;;;;;;;;5089643;27;46669;-74
2023/06/07 00:45:42;;;;;;;;;20.00;17.25;;;;;;;;5087749;27;45261;-75
2023/06/07 00:48:08;;;;;;;;;20.00;18.25;;;;;;;;5098881;27;45361;-75
2023/06/07 00:50:33;;;;;;;;;17.25;16.00;;;;;;;;5099300;27;46152;-75
2023/06/07 00:52:59;;;;;;;;;21.00;16.75;;;;;;;;5088084;27;45456;-74
2023/06/07 00:55:25;;;;;;;;;17.00;15.50;;;;;;;;5088663;27;45705;-75
2023/06/07 00:57:50;;;;;;;;;19.25;15.25;;;;;;;;5093823;27;45393;-75
2023/06/07 01:00:15;;;;;;;;;19.50;18.75;;;;;;;;5095370;27;45376;-75
2023/06/07 01:02:41;;;;;;;;;22.50;19.00;;;;;;;;5089164;27;45316;-75
2023/06/07 01:05:07;;;;;;;;;18.00;16.25;;;;;;;;5079980;27;45592;-75
2023/06/07 01:07:32;;;;;;;;;21.50;17.75;;;;;;;;5099491;27;45283;-75
2023/06/07 01:09:59;;;;;;;;;19.25;16.00;;;;;;;;5090039;27;45968;-75
2023/06/07 01:12:24;;;;;;;;;21.75;19.25;;;;;;;;5086876;27;45433;-75
2023/06/07 01:14:50;;;;;;;;;19.50;16.50;;;;;;;;5080431;27;45495;-75
2023/06/07 01:17:17;;;;;;;;;20.00;18.50;;;;;;;;5080343;27;45453;-75
2023/06/07 01:19:42;;;;;;;;;19.75;17.25;;;;;;;;5087471;27;45475;-75
2023/06/07 01:22:09;;;;;;;;;17.00;15.75;;;;;;;;5093576;27;45388;-75
2023/06/07 01:24:42;;;;;;;;;18.50;18.00;;;;;;;;5082486;27;45414;-75
2023/06/07 01:27:08;;;;;;;;;19.75;18.75;;;;;;;;5085770;27;46971;-75
2023/06/07 01:29:33;;;;;;;;;19.00;17.75;;;;;;;;5085510;27;47642;-75
2023/06/07 01:32:00;;;;;;;;;22.50;19.00;;;;;;;;5099127;27;45453;-75
2023/06/07 01:34:26;;;;;;;;;24.50;18.75;;;;;;;;5097041;27;45346;-74
2023/06/07 01:36:53;;;;;;;;;22.25;19.75;;;;;;;;5087099;27;45382;-75
2023/06/07 01:39:19;;;;;;;;;23.25;19.25;;;;;;;;5085077;27;46406;-74
2023/06/07 01:41:46;;;;;;;;;24.50;21.50;;;;;;;;5090271;27;45251;-74
2023/06/07 01:44:12;;;;;;;;;19.00;19.00;;;;;;;;5096523;27;45266;-74
2023/06/07 01:46:38;;;;;;;;;20.75;18.50;;;;;;;;5097298;27;47287;-74
2023/06/07 01:49:03;;;;;;;;;23.50;20.00;;;;;;;;5089962;27;47047;-74
2023/06/07 01:51:28;;;;;;;;;21.25;18.00;;;;;;;;5095154;27;45513;-75
2023/06/07 01:53:54;;;;;;;;;19.00;18.00;;;;;;;;5090096;27;45434;-74
2023/06/07 01:56:19;;;;;;;;;23.50;21.75;;;;;;;;5091722;27;45376;-74
2023/06/07 01:58:53;;;;;;;;;24.00;16.67;;;;;;;;5098309;27;47322;-74
2023/06/07 02:01:25;;;;;;;;;23.50;18.25;;;;;;;;5087429;27;45778;-74
2023/06/07 02:03:53;;;;;;;;;19.50;18.50;;;;;;;;5089630;27;45523;-74
2023/06/07 02:06:26;;;;;;;;;18.00;16.25;;;;;;;;5095547;27;45365;-74
2023/06/07 02:08:53;;;;;;;;;23.00;18.75;;;;;;;;5084747;27;47245;-74
2023/06/07 02:11:19;;;;;;;;;17.00;15.75;;;;;;;;5094506;27;45431;-74
2023/06/07 02:13:45;;;;;;;;;20.75;19.75;;;;;;;;5098811;27;45371;-75
2023/06/07 02:16:10;;;;;;;;;21.75;17.50;;;;;;;;5086526;27;46207;-74
2023/06/07 02:18:40;;;;;;;;;24.00;21.00;;;;;;;;5086043;27;46484;-74
2023/06/07 02:21:09;;;;;;;;;25.25;20.75;;;;;;;;5092861;27;45451;-74
2023/06/07 02:23:34;;;;;;;;;28.25;23.25;;;;;;;;5095012;27;45433;-74
2023/06/07 02:25:59;;;;;;;;;25.50;21.00;;;;;;;;5083670;27;45369;-74
2023/06/07 02:28:25;;;;;;;;;20.67;15.33;;;;;;;;5084691;27;47177;-74
2023/06/07 02:30:51;;;;;;;;;24.67;21.00;;;;;;;;5085302;27;46999;-74
2023/06/07 02:33:21;;;;;;;;;27.25;21.50;;;;;;;;5086095;27;45508;-74
2023/06/07 02:35:46;;;;;;;;;30.25;21.75;;;;;;;;5087838;27;46373;-74
2023/06/07 02:38:11;;;;;;;;;24.67;23.00;;;;;;;;5085617;27;45727;-74
2023/06/07 02:40:36;;;;;;;;;24.25;22.00;;;;;;;;5085734;27;45476;-74
2023/06/07 02:43:02;;;;;;;;;18.67;16.33;;;;;;;;5087694;27;46294;-74
2023/06/07 02:45:27;;;;;;;;;21.00;17.67;;;;;;;;5088430;27;45577;-74
2023/06/07 02:47:53;;;;;;;;;30.00;25.00;;;;;;;;5086144;27;45484;-72
2023/06/07 02:50:19;;;;;;;;;26.25;23.50;;;;;;;;5089144;27;45532;-74
2023/06/07 02:52:44;;;;;;;;;18.33;16.67;;;;;;;;5088899;27;45486;-74
2023/06/07 02:55:09;;;;;;;;;28.75;24.25;;;;;;;;5089523;27;46857;-74
2023/06/07 02:57:35;;;;;;;;;21.25;19.25;;;;;;;;5087230;27;46508;-74
2023/06/07 03:00:00;;;;;;;;;20.50;18.00;;;;;;;;5084459;27;45571;-74
2023/06/07 03:02:26;;;;;;;;;25.00;23.33;;;;;;;;5079336;27;45260;-74
2023/06/07 03:04:51;;;;;;;;;21.67;20.00;;;;;;;;5091076;27;45405;-74
2023/06/07 03:07:16;;;;;;;;;30.25;24.50;;;;;;;;5085467;27;46902;-75
2023/06/07 03:09:43;;;;;;;;;26.50;22.75;;;;;;;;5086676;27;45546;-74
2023/06/07 03:12:08;;;;;;;;;24.25;18.75;;;;;;;;5085390;27;45847;-74
2023/06/07 03:14:34;;;;;;;;;25.50;22.50;;;;;;;;5093774;27;45429;-74
2023/06/07 03:17:02;;;;;;;;;30.50;26.50;;;;;;;;5082765;27;45341;-74
2023/06/07 03:19:27;;;;;;;;;25.25;23.00;;;;;;;;5081699;27;45211;-74
2023/06/07 03:21:53;;;;;;;;;21.33;21.00;;;;;;;;5094011;27;45464;-74
2023/06/07 03:24:18;;;;;;;;;28.00;24.75;;;;;;;;5084145;27;46400;-74
2023/06/07 03:26:44;;;;;;;;;29.33;26.33;;;;;;;;5087223;27;45401;-74
2023/06/07 03:29:09;;;;;;;;;28.50;24.00;;;;;;;;5085075;27;45263;-74
2023/06/07 03:31:35;;;;;;;;;28.50;25.25;;;;;;;;5088578;27;45316;-74
2023/06/07 03:34:00;;;;;;;;;28.50;22.50;;;;;;;;5081305;27;45455;-74
2023/06/07 03:36:31;;;;;;;;;29.25;24.00;;;;;;;;5083755;27;47131;-74
2023/06/07 03:38:57;;;;;;;;;26.50;22.25;;;;;;;;5088941;27;45541;-74
2023/06/07 03:41:22;;;;;;;;;27.00;22.75;;;;;;;;5086165;27;45300;-74
2023/06/07 03:43:47;;;;;;;;;26.33;22.33;;;;;;;;5088061;27;46116;-74
2023/06/07 03:46:12;;;;;;;;;32.00;28.00;;;;;;;;5093633;27;45234;-74
2023/06/07 03:48:38;;;;;;;;;25.00;21.67;;;;;;;;5082208;27;45259;-74
2023/06/07 03:51:03;;;;;;;;;27.25;22.75;;;;;;;;5090895;27;45259;-74
2023/06/07 03:53:28;;;;;;;;;25.00;21.25;;;;;;;;5092916;27;45348;-74
2023/06/07 03:55:54;;;;;;;;;37.67;29.67;;;;;;;;5093170;27;45536;-74
2023/06/07 03:58:19;;;;;;;;;22.50;22.50;;;;;;;;5085827;27;45323;-74
2023/06/07 04:00:45;;;;;;;;;25.75;23.00;;;;;;;;5095738;27;45412;-74
2023/06/07 04:03:10;;;;;;;;;33.25;29.00;;;;;;;;5082618;27;46104;-74
2023/06/07 04:05:38;;;;;;;;;31.00;28.25;;;;;;;;5090455;27;46503;-74
2023/06/07 04:08:05;;;;;;;;;26.00;22.25;;;;;;;;5095251;27;45716;-74
2023/06/07 04:10:30;;;;;;;;;32.25;26.50;;;;;;;;5088337;27;45493;-74
2023/06/07 04:12:55;;;;;;;;;28.67;27.00;;;;;;;;5087178;27;46837;-74
2023/06/07 04:15:20;;;;;;;;;28.33;27.33;;;;;;;;5083030;27;47097;-74
2023/06/07 04:17:46;;;;;;;;;33.33;26.00;;;;;;;;5091483;27;45457;-74
2023/06/07 04:20:11;;;;;;;;;37.00;30.00;;;;;;;;5079674;27;46579;-74
2023/06/07 04:22:36;;;;;;;;;33.00;25.75;;;;;;;;5084978;27;45227;-74
2023/06/07 04:25:02;;;;;;;;;31.50;27.25;;;;;;;;5095390;27;46447;-74
2023/06/07 04:27:29;;;;;;;;;32.25;28.00;;;;;;;;5100381;27;45294;-74
2023/06/07 04:29:55;;;;;;;;;33.25;31.00;;;;;;;;5085264;27;45310;-74
2023/06/07 04:32:20;;;;;;;;;35.25;29.25;;;;;;;;5098185;27;45448;-74
2023/06/07 04:34:46;;;;;;;;;35.50;30.50;;;;;;;;5092801;27;47332;-74
2023/06/07 04:37:12;;;;;;;;;31.00;26.50;;;;;;;;5098868;27;45348;-74
2023/06/07 04:39:40;;;;;;;;;36.75;31.75;;;;;;;;5093564;27;46008;-74
2023/06/07 04:42:06;;;;;;;;;33.50;31.25;;;;;;;;5080375;27;45482;-74
2023/06/07 04:44:31;;;;;;;;;33.75;28.50;;;;;;;;5083835;27;45878;-74
2023/06/07 04:46:57;;;;;;;;;44.33;36.00;;;;;;;;5083056;27;45347;-74
2023/06/07 04:49:23;;;;;;;;;30.25;28.00;;;;;;;;5094675;27;45444;-74
2023/06/07 04:51:48;;;;;;;;;35.25;30.50;;;;;;;;5093277;27;45169;-74
2023/06/07 04:54:16;;;;;;;;;35.50;30.75;;;;;;;;5093124;27;45401;-74
2023/06/07 04:56:41;;;;;;;;;31.00;28.50;;;;;;;;5095503;27;45888;-74
2023/06/07 04:59:08;;;;;;;;;33.00;29.25;;;;;;;;5089902;27;45325;-74
2023/06/07 05:01:33;;;;;;;;;36.75;30.50;;;;;;;;5080538;27;45762;-74
2023/06/07 05:04:00;;;;;;;;;33.25;26.25;;;;;;;;5085585;27;45386;-74
2023/06/07 05:06:25;;;;;;;;;37.75;32.75;;;;;;;;5091830;27;45272;-74
2023/06/07 05:08:50;;;;;;;;;32.25;29.75;;;;;;;;5088514;27;45257;-74
2023/06/07 05:11:16;;;;;;;;;32.00;29.00;;;;;;;;5088647;27;45156;-74
2023/06/07 05:13:41;;;;;;;;;36.33;30.67;;;;;;;;5085454;27;45213;-74
2023/06/07 05:16:11;;;;;;;;;35.25;27.50;;;;;;;;5083119;27;45238;-74
2023/06/07 05:18:39;;;;;;;;;32.25;29.50;;;;;;;;5078642;27;45512;-74
2023/06/07 05:21:04;;;;;;;;;37.75;30.50;;;;;;;;5094676;27;45289;-74
2023/06/07 05:23:29;;;;;;;;;40.67;32.33;;;;;;;;5087592;27;46741;-74
2023/06/07 05:25:54;;;;;;;;;39.00;33.00;;;;;;;;5090620;27;45668;-74
2023/06/07 05:28:20;;;;;;;;;42.33;32.67;;;;;;;;5091331;27;45535;-74
2023/06/07 05:30:45;;;;;;;;;39.33;30.67;;;;;;;;5094460;27;46924;-75
2023/06/07 05:33:11;;;;;;;;;38.25;34.00;;;;;;;;5096287;27;46053;-74
2023/06/07 05:35:36;;;;;;;;;32.67;30.67;;;;;;;;5096418;27;45286;-74
2023/06/07 05:38:01;;;;;;;;;39.67;33.00;;;;;;;;5102807;27;45391;-74
2023/06/07 05:40:26;;;;;;;;;33.00;30.75;;;;;;;;5090965;27;45647;-74
2023/06/07 05:42:53;;;;;;;;;37.67;31.67;;;;;;;;5088714;27;45308;-74
2023/06/07 05:45:18;;;;;;;;;33.00;30.50;;;;;;;;5086672;27;45631;-74
2023/06/07 05:47:46;;;;;;;;;34.00;30.00;;;;;;;;5083162;27;45405;-74
2023/06/07 05:50:12;;;;;;;;;31.75;29.50;;;;;;;;5082882;27;46903;-74
2023/06/07 05:52:40;;;;;;;;;40.00;32.75;;;;;;;;5091963;27;45637;-74
2023/06/07 05:55:05;;;;;;;;;25.75;25.00;;;;;;;;5082734;27;45506;-75
2023/06/07 05:57:30;;;;;;;;;32.25;28.25;;;;;;;;5093552;27;45238;-74
2023/06/07 05:59:56;;;;;;;;;35.67;29.33;;;;;;;;5096212;27;45361;-74
2023/06/07 06:02:23;;;;;;;;;35.67;31.67;;;;;;;;5084466;27;47280;-74
2023/06/07 06:04:48;;;;;;;;;33.25;28.00;;;;;;;;5094881;27;45458;-74
2023/06/07 06:07:15;;;;;;;;;37.75;33.75;;;;;;;;5090175;27;45406;-74
2023/06/07 06:09:41;;;;;;;;;33.25;31.00;;;;;;;;5096928;27;45296;-74
2023/06/07 06:12:07;;;;;;;;;40.25;32.25;;;;;;;;5085661;27;47091;-74
2023/06/07 06:14:32;;;;;;;;;37.75;32.25;;;;;;;;5095293;27;45392;-74
2023/06/07 06:16:57;;;;;;;;;37.67;28.33;;;;;;;;5088961;27;45405;-74
2023/06/07 06:19:22;;;;;;;;;34.00;31.00;;;;;;;;5099908;27;45299;-74
2023/06/07 06:21:48;;;;;;;;;30.25;27.00;;;;;;;;5100193;27;46252;-73
2023/06/07 06:24:13;;;;;;;;;33.33;30.33;;;;;;;;5102123;27;45288;-74
2023/06/07 06:26:38;;;;;;;;;39.00;33.00;;;;;;;;5091102;27;45669;-74
2023/06/07 06:29:03;;;;;;;;;32.75;29.25;;;;;;;;5084523;27;45716;-74
2023/06/07 06:31:28;;;;;;;;;30.00;28.67;;;;;;;;5081331;27;46526;-74
2023/06/07 06:33:54;;;;;;;;;38.00;33.67;;;;;;;;5093226;27;45324;-74
2023/06/07 06:36:20;;;;;;;;;41.25;32.00;;;;;;;;5098841;27;45397;-74
2023/06/07 06:38:45;;;;;;;;;31.50;29.75;;;;;;;;5091725;27;45567;-74
2023/06/07 06:41:11;;;;;;;;;39.25;32.00;;;;;;;;5088160;27;45267;-74
2023/06/07 06:43:36;;;;;;;;;34.00;31.00;;;;;;;;5081306;27;45278;-74
2023/06/07 06:46:01;;;;;;;;;37.00;33.00;;;;;;;;5083429;27;45435;-74
2023/06/07 06:48:26;;;;;;;;;31.67;29.33;;;;;;;;5087193;27;45830;-74
2023/06/07 06:50:51;;;;;;;;;32.67;28.67;;;;;;;;5096468;27;46122;-75
2023/06/07 06:53:16;;;;;;;;;31.33;28.33;;;;;;;;5088828;27;45404;-74
2023/06/07 06:55:42;;;;;;;;;33.00;29.33;;;;;;;;5082718;27;45230;-74
2023/06/07 06:58:07;;;;;;;;;34.67;30.67;;;;;;;;5081173;27;46247;-74
2023/06/07 07:00:35;;;;;;;;;34.00;30.00;;;;;;;;5092339;27;48392;-75
2023/06/07 07:03:00;;;;;;;;;27.75;24.75;;;;;;;;5086446;27;45405;-74
2023/06/07 07:05:25;;;;;;;;;37.00;31.00;;;;;;;;5083071;27;46018;-74
2023/06/07 07:07:50;;;;;;;;;33.33;28.33;;;;;;;;5091698;27;45570;-74
2023/06/07 07:10:18;;;;;;;;;29.67;27.67;;;;;;;;5085204;27;46268;-74
2023/06/07 07:12:43;;;;;;;;;26.75;23.75;;;;;;;;5084483;27;45802;-74
2023/06/07 07:15:08;;;;;;;;;29.67;25.67;;;;;;;;5097132;27;45335;-77
2023/06/07 07:17:34;;;;;;;;;31.00;26.75;;;;;;;;5080771;27;45428;-76
2023/06/07 07:19:59;;;;;;;;;31.67;28.33;;;;;;;;5092988;27;45275;-77
2023/06/07 07:22:24;;;;;;;;;24.00;23.00;;;;;;;;5089013;27;46822;-75
2023/06/07 07:24:50;;;;;;;;;33.75;29.00;;;;;;;;5085783;27;45441;-77
2023/06/07 07:27:16;;;;;;;;;29.33;25.67;;;;;;;;5093095;27;45380;-79
2023/06/07 07:29:41;;;;;;;;;27.00;24.50;;;;;;;;5092686;27;48380;-78
2023/06/07 07:32:06;;;;;;;;;28.00;24.33;;;;;;;;5092276;27;45369;-79
2023/06/07 07:34:32;;;;;;;;;23.00;21.75;;;;;;;;5088818;27;45337;-77
2023/06/07 07:37:02;;;;;;;;;26.67;25.00;;;;;;;;5089403;27;45345;-78
2023/06/07 07:39:27;;;;;;;;;28.50;24.00;;;;;;;;5080892;27;47133;-74
2023/06/07 07:41:52;;;;;;;;;31.75;27.50;;;;;;;;5087301;27;45655;-74
2023/06/07 07:44:17;;;;;;;;;28.00;25.00;;;;;;;;5090475;27;45475;-72
2023/06/07 07:46:42;;;;;;;;;17.00;17.00;;;;;;;;5086028;27;45459;-72
2023/06/07 07:49:09;;;;;;;;;25.00;22.33;;;;;;;;5093391;27;46254;-72
2023/06/07 07:51:35;;;;;;;;;25.25;21.00;;;;;;;;5082962;27;45577;-70
2023/06/07 07:54:00;;;;;;;;;21.75;19.00;;;;;;;;5089881;27;45412;-70
2023/06/07 07:56:26;;;;;;;;;28.25;23.25;;;;;;;;5086791;27;46105;-71
2023/06/07 07:58:51;;;;;;;;;22.00;20.75;;;;;;;;5080886;27;46215;-72
2023/06/07 08:01:18;;;;;;;;;25.75;21.00;;;;;;;;5087322;27;45467;-72
2023/06/07 08:03:43;;;;;;;;;24.00;22.50;;;;;;;;5087335;27;45460;-74
2023/06/07 08:06:08;;;;;;;;;27.50;20.25;;;;;;;;5094608;27;45485;-72
2023/06/07 08:08:33;;;;;;;;;28.00;26.00;;;;;;;;5091015;27;45426;-73
2023/06/07 08:11:00;;;;;;;;;28.25;24.50;;;;;;;;5085775;27;46153;-72
2023/06/07 08:13:25;;;;;;;;;25.75;22.75;;;;;;;;5087518;27;45507;-74
2023/06/07 08:15:50;;;;;;;;;22.00;18.00;;;;;;;;5081870;27;45433;-72
2023/06/07 08:18:16;;;;;;;;;27.00;21.00;;;;;;;;5085586;27;45485;-74
2023/06/07 08:20:41;;;;;;;;;23.75;23.00;;;;;;;;5085118;27;45491;-73
2023/06/07 08:23:06;;;;;;;;;20.67;20.33;;;;;;;;5095802;27;45314;-74
2023/06/07 08:25:31;;;;;;;;;20.25;20.25;;;;;;;;5094760;27;45396;-74
2023/06/07 08:27:57;;;;;;;;;24.00;20.00;;;;;;;;5083849;27;45444;-76
2023/06/07 08:30:22;;;;;;;;;25.67;22.67;;;;;;;;5080424;27;45303;-76
2023/06/07 08:32:48;;;;;;;;;24.00;22.00;;;;;;;;5087960;27;45336;-76
2023/06/07 08:35:13;;;;;;;;;27.00;24.00;;;;;;;;5085767;27;45388;-80
2023/06/07 08:37:39;;;;;;;;;22.00;21.33;;;;;;;;5088209;27;48466;-78
2023/06/07 08:40:05;;;;;;;;;22.75;20.25;;;;;;;;5083186;27;45508;-76
2023/06/07 08:42:31;;;;;;;;;22.50;20.75;;;;;;;;5094715;27;45513;-76
2023/06/07 08:44:57;;;;;;;;;19.25;14.25;;;;;;;;5084265;27;47115;-83
2023/06/07 08:47:23;;;;;;;;;24.67;23.00;;;;;;;;5082611;27;45519;-81
2023/06/07 08:49:52;;;;;;;;;25.00;20.75;;;;;;;;5091155;27;46271;-82
2023/06/07 08:52:17;;;;;;;;;23.00;21.75;;;;;;;;5091753;27;45450;-81
2023/06/07 08:54:43;;;;;;;;;24.25;22.50;;;;;;;;5089293;27;47224;-83
2023/06/07 08:57:09;;;;;;;;;26.25;23.75;;;;;;;;5088277;27;45504;-74
2023/06/07 08:59:36;;;;;;;;;20.75;19.50;;;;;;;;5094788;27;45302;-74
2023/06/07 09:02:02;;;;;;;;;23.25;20.00;;;;;;;;5091891;27;45390;-80
2023/06/07 09:04:27;;;;;;;;;21.00;20.00;;;;;;;;5088393;27;45525;-76
2023/06/07 09:06:52;;;;;;;;;21.00;18.67;;;;;;;;5095034;27;47996;-79
2023/06/07 09:09:18;;;;;;;;;20.33;19.67;;;;;;;;5087472;27;45257;-78
2023/06/07 09:11:43;;;;;;;;;25.33;21.00;;;;;;;;5093754;27;45458;-72
2023/06/07 09:14:09;;;;;;;;;15.33;13.67;;;;;;;;5085831;27;45456;-77
2023/06/07 09:16:50;;;;;;;;;22.00;19.75;;;;;;;;5088549;27;45421;-76
2023/06/07 09:19:28;;;;;;;;;21.00;19.50;;;;;;;;5091266;27;45455;-75
2023/06/07 09:21:55;;;;;;;;;17.75;16.75;;;;;;;;5093329;27;45504;-75
2023/06/07 09:24:25;;;;;;;;;19.75;19.25;;;;;;;;5091561;27;45492;-76
2023/06/07 09:26:51;;;;;;;;;17.50;16.75;;;;;;;;5095968;27;47121;-77
2023/06/07 09:29:16;;;;;;;;;20.00;19.50;;;;;;;;5093136;27;45452;-78
2023/06/07 09:31:41;;;;;;;;;17.67;17.67;;;;;;;;5086081;27;45394;-78
2023/06/07 09:34:18;;;;;;;;;16.67;15.67;;;;;;;;5086772;27;45256;-81
2023/06/07 09:36:50;;;;;;;;;21.25;19.25;;;;;;;;5085269;27;45497;-85
2023/06/07 09:39:23;;;;;;;;;21.00;20.25;;;;;;;;5098968;27;45203;-77
2023/06/07 09:41:48;;;;;;;;;19.75;17.50;;;;;;;;5088144;27;45372;-78
2023/06/07 09:44:23;;;;;;;;;19.00;18.25;;;;;;;;5097156;27;45553;-78
2023/06/07 09:46:50;;;;;;;;;21.00;19.00;;;;;;;;5087524;27;46581;-78
2023/06/07 09:49:21;;;;;;;;;20.00;18.00;;;;;;;;5097532;27;45282;-76
2023/06/07 09:51:46;;;;;;;;;22.25;20.75;;;;;;;;5086949;27;45482;-78
2023/06/07 09:54:12;;;;;;;;;24.67;21.67;;;;;;;;5085422;27;45243;-75
2023/06/07 09:56:40;;;;;;;;;18.67;17.67;;;;;;;;5099609;27;46417;-78
2023/06/07 09:59:07;;;;;;;;;21.00;19.00;;;;;;;;5097186;27;45625;-73
2023/06/07 10:01:37;;;;;;;;;18.00;17.25;;;;;;;;5091315;27;45479;-74
2023/06/07 10:04:02;;;;;;;;;20.25;18.50;;;;;;;;5095261;27;45604;-74
2023/06/07 10:06:30;;;;;;;;;21.75;19.00;;;;;;;;5099583;27;45347;-73
2023/06/07 10:08:57;;;;;;;;;21.25;19.75;;;;;;;;5095967;27;45482;-76
2023/06/07 10:11:22;;;;;;;;;18.75;18.00;;;;;;;;5086772;27;45338;-74
2023/06/07 10:13:47;;;;;;;;;17.75;17.00;;;;;;;;5099216;27;45299;-76
2023/06/07 10:16:14;;;;;;;;;17.75;16.00;;;;;;;;5088061;27;45428;-80
2023/06/07 10:18:39;;;;;;;;;17.50;16.50;;;;;;;;5086009;27;45572;-74
2023/06/07 10:21:13;;;;;;;;;17.25;16.00;;;;;;;;5084322;27;45442;-75
2023/06/07 10:23:55;;;;;;;;;16.00;15.25;;;;;;;;5096681;27;45741;-76
2023/06/07 10:26:34;;;;;;;;;19.00;16.75;;;;;;;;5093446;27;45274;-74
2023/06/07 10:29:11;;;;;;;;;17.00;17.00;;;;;;;;5094333;27;45803;-73
2023/06/07 10:31:40;;;;;;;;;20.00;19.50;;;;;;;;5090866;27;45571;-72
2023/06/07 10:34:08;;;;;;;;;17.25;17.25;;;;;;;;5090958;27;46086;-72
2023/06/07 10:36:42;;;;;;;;;21.00;21.00;;;;;;;;5086340;27;45477;-72
2023/06/07 10:39:11;;;;;;;;;19.50;18.25;;;;;;;;5103541;27;45668;-72
2023/06/07 10:41:36;;;;;;;;;18.25;16.25;;;;;;;;5085099;27;45329;-76
2023/06/07 10:44:02;;;;;;;;;15.00;14.25;;;;;;;;5085345;27;45390;-72
2023/06/07 10:46:27;;;;;;;;;19.50;18.25;;;;;;;;5083438;27;46461;-71
2023/06/07 10:48:54;;;;;;;;;20.25;17.00;;;;;;;;5088263;27;46146;-78
2023/06/07 10:51:39;;;;;;;;;18.25;17.25;;;;;;;;5084667;27;45692;-73
2023/06/07 10:54:04;;;;;;;;;16.00;16.00;;;;;;;;5083999;27;45429;-74
2023/06/07 10:56:29;;;;;;;;;21.00;19.50;;;;;;;;5099189;27;45418;-75
2023/06/07 10:58:56;;;;;;;;;17.25;16.75;;;;;;;;5087439;27;45407;-75
2023/06/07 11:01:23;;;;;;;;;22.00;20.25;;;;;;;;5084669;27;45353;-75
2023/06/07 11:03:48;;;;;;;;;17.25;16.50;;;;;;;;5087135;27;45341;-75
2023/06/07 11:06:14;;;;;;;;;21.00;20.67;;;;;;;;5081622;27;46427;-75
2023/06/07 11:08:40;;;;;;;;;20.00;18.50;;;;;;;;5093204;27;46460;-74
2023/06/07 11:11:26;;;;;;;;;20.25;19.50;;;;;;;;5083934;27;45461;-73
2023/06/07 11:13:54;;;;;;;;;18.25;17.50;;;;;;;;5086528;27;45772;-74
2023/06/07 11:16:22;;;;;;;;;16.00;15.00;;;;;;;;5091933;27;45571;-73
2023/06/07 11:19:00;;;;;;;;;19.50;19.00;;;;;;;;5083412;27;45437;-73
2023/06/07 11:21:28;;;;;;;;;17.25;15.50;;;;;;;;5085038;27;45496;-73
2023/06/07 11:24:12;;;;;;;;;20.00;16.75;;;;;;;;5083646;27;45537;-74
2023/06/07 11:26:37;;;;;;;;;20.50;20.00;;;;;;;;5092639;27;46995;-75
2023/06/07 11:29:04;;;;;;;;;18.00;17.00;;;;;;;;5085137;27;45388;-74
2023/06/07 11:31:29;;;;;;;;;23.00;21.00;;;;;;;;5091144;27;45488;-74
2023/06/07 11:33:54;;;;;;;;;21.00;19.33;;;;;;;;5091400;27;45704;-72
2023/06/07 11:36:21;;;;;;;;;18.25;17.50;;;;;;;;5081055;27;46129;-76
2023/06/07 11:38:49;;;;;;;;;17.75;16.25;;;;;;;;5083644;27;45530;-82
2023/06/07 11:41:15;;;;;;;;;18.25;16.50;;;;;;;;5079425;27;45228;-74
2023/06/07 11:43:40;;;;;;;;;17.25;17.25;;;;;;;;5093764;27;45144;-75
2023/06/07 11:46:05;;;;;;;;;20.25;19.00;;;;;;;;5080677;27;47140;-74
2023/06/07 11:48:30;;;;;;;;;16.00;16.00;;;;;;;;5089414;27;45384;-74
2023/06/07 11:50:56;;;;;;;;;18.75;18.75;;;;;;;;5082748;27;45793;-74
2023/06/07 11:53:22;;;;;;;;;17.25;16.25;;;;;;;;5088277;27;45294;-73
2023/06/07 11:55:48;;;;;;;;;19.25;18.75;;;;;;;;5094455;27;45450;-74
2023/06/07 11:58:13;;;;;;;;;20.50;19.75;;;;;;;;5086922;27;45298;-76
2023/06/07 12:00:41;;;;;;;;;15.75;15.75;;;;;;;;5086068;27;45480;-73
2023/06/07 12:03:06;;;;;;;;;17.50;16.50;;;;;;;;5086874;27;45615;-74
2023/06/07 12:05:31;;;;;;;;;15.75;14.75;;;;;;;;5080349;27;46208;-83
2023/06/07 12:08:03;;;;;;;;;16.75;16.00;;;;;;;;5089577;27;45383;-80
2023/06/07 12:10:28;;;;;;;;;15.75;15.00;;;;;;;;5088930;27;45417;-80
2023/06/07 12:13:07;;;;;;;;;17.75;17.75;;;;;;;;5085036;27;45595;-83
2023/06/07 12:15:34;;;;;;;;;16.50;16.50;;;;;;;;5089815;27;46657;-83
2023/06/07 12:17:59;;;;;;;;;20.00;20.00;;;;;;;;5088618;27;45703;-83
2023/06/07 12:20:25;;;;;;;;;21.25;18.75;;;;;;;;5095146;27;45342;-78
2023/06/07 12:22:50;;;;;;;;;16.25;16.00;;;;;;;;5090114;27;46081;-78
2023/06/07 12:25:17;;;;;;;;;17.00;16.00;;;;;;;;5086451;27;46839;-78
2023/06/07 12:27:46;;;;;;;;;13.75;13.25;;;;;;;;5087949;27;45506;-76
2023/06/07 12:30:12;;;;;;;;;17.75;17.50;;;;;;;;5077867;27;46005;-74
2023/06/07 12:32:37;;;;;;;;;18.67;18.33;;;;;;;;5092263;27;45812;-74
2023/06/07 12:35:05;;;;;;;;;15.75;15.00;;;;;;;;5090459;27;45323;-74
2023/06/07 12:37:33;;;;;;;;;17.25;17.25;;;;;;;;5091722;27;46097;-74
2023/06/07 12:39:58;;;;;;;;;17.50;16.75;;;;;;;;5086194;27;45487;-74
2023/06/07 12:42:24;;;;;;;;;17.67;16.33;;;;;;;;5092535;27;45315;-75
2023/06/07 12:44:54;;;;;;;;;14.00;14.00;;;;;;;;5087743;27;45326;-75
2023/06/07 12:47:20;;;;;;;;;14.00;14.00;;;;;;;;5099583;27;45605;-75
2023/06/07 12:49:45;;;;;;;;;18.00;17.00;;;;;;;;5097265;27;45214;-75
2023/06/07 12:52:10;;;;;;;;;17.50;16.75;;;;;;;;5090465;27;46286;-75
2023/06/07 12:54:35;;;;;;;;;15.50;15.00;;;;;;;;5091165;27;46459;-74
2023/06/07 12:57:01;;;;;;;;;13.00;11.67;;;;;;;;5084003;27;45519;-74
2023/06/07 12:59:26;;;;;;;;;12.67;12.67;;;;;;;;5086880;27;45274;-74
2023/06/07 13:01:51;;;;;;;;;17.00;16.33;;;;;;;;5094127;27;45436;-75
2023/06/07 13:04:16;;;;;;;;;18.00;17.33;;;;;;;;5083582;27;46437;-75
2023/06/07 13:06:42;;;;;;;;;17.00;16.00;;;;;;;;5079324;28;45357;-74
2023/06/07 13:09:08;;;;;;;;;14.50;14.00;;;;;;;;5083000;27;45266;-74
2023/06/07 13:11:34;;;;;;;;;17.00;16.00;;;;;;;;5081861;27;47008;-75
2023/06/07 13:13:59;;;;;;;;;15.50;14.75;;;;;;;;5096504;27;47393;-75
2023/06/07 13:16:24;;;;;;;;;15.33;15.00;;;;;;;;5099701;27;45317;-74
2023/06/07 13:18:49;;;;;;;;;18.00;18.00;;;;;;;;5083632;27;45297;-74
2023/06/07 13:21:14;;;;;;;;;13.00;13.00;;;;;;;;5085615;27;45934;-75
2023/06/07 13:23:40;;;;;;;;;13.00;13.00;;;;;;;;5096583;27;46888;-75
2023/06/07 13:26:05;;;;;;;;;16.25;16.25;;;;;;;;5099702;27;45315;-75
2023/06/07 13:28:31;;;;;;;;;19.00;19.00;;;;;;;;5097960;27;46853;-74
2023/06/07 13:30:56;;;;;;;;;15.75;15.00;;;;;;;;5078161;27;45603;-75
2023/06/07 13:33:21;;;;;;;;;16.67;16.67;;;;;;;;5086112;27;45453;-75
2023/06/07 13:35:46;;;;;;;;;15.33;15.00;;;;;;;;5082475;27;45394;-75
2023/06/07 13:38:12;;;;;;;;;19.67;17.00;;;;;;;;5084147;27;45150;-75
2023/06/07 13:40:37;;;;;;;;;17.75;17.00;;;;;;;;5091755;27;45515;-75
2023/06/07 13:43:02;;;;;;;;;13.75;13.00;;;;;;;;5085956;27;45392;-74
2023/06/07 13:45:28;;;;;;;;;16.33;15.33;;;;;;;;5101856;27;45296;-75
2023/06/07 13:47:53;;;;;;;;;16.00;16.00;;;;;;;;5090319;27;45423;-75
2023/06/07 13:50:18;;;;;;;;;18.33;16.67;;;;;;;;5101761;27;45362;-75
2023/06/07 13:52:43;;;;;;;;;16.33;16.33;;;;;;;;5102372;27;46394;-73
2023/06/07 13:55:09;;;;;;;;;16.00;15.00;;;;;;;;5092382;27;46928;-77
2023/06/07 13:57:36;;;;;;;;;16.00;15.25;;;;;;;;5088738;27;45649;-78
2023/06/07 14:00:03;;;;;;;;;15.75;14.25;;;;;;;;5097880;27;46469;-78
2023/06/07 14:02:28;;;;;;;;;19.00;18.25;;;;;;;;5083597;27;46353;-79
2023/06/07 14:04:53;;;;;;;;;19.00;18.33;;;;;;;;5093284;27;45575;-79
2023/06/07 14:07:19;;;;;;;;;13.33;13.00;;;;;;;;5102684;27;45346;-78
2023/06/07 14:09:45;;;;;;;;;18.25;17.00;;;;;;;;5094589;27;46826;-79
2023/06/07 14:12:11;;;;;;;;;13.25;13.25;;;;;;;;5091211;27;46586;-79